Shoei Maru — JG5125 — position and weather

sailwx.info

Track history (hours):
 
Tides and Currents Weather Stations Pressure Air Temp Water Temp Dewpoint Dewpoint Depression Visibility Wind Speed Wind Dir Waves Ship Positions

Shoei Maru

Last reported at 2018-May-14 23:20 UTC. Time now 2018-Jun-22 03:03 UTC.
Position N 34°24' E 130°52'.
Warning: this ship's position is 38 days out of date.

Length 70 m; draft 5 m.

Type: Tanker. MMSI: 431600827.

Date/timePositionNaut miles runAvg speedWind from/ knotsBaromVisibWave heightAir tempDewpointWater temp
2018-May-14 23:20N 34°24' E 130°52'411.7
2018-May-14 22:58N 34°20' E 130°48'612.0
2018-May-14 22:30N 34°15' E 130°49'611.8
2018-May-14 22:00N 34°09' E 130°50'611.8
2018-May-14 21:30N 34°03' E 130°51'611.0
2018-May-14 21:00N 33°58' E 130°53'4 7.9
2018-May-14 20:30N 33°55' E 130°56'4 8.9
2018-May-14 20:00N 33°58' E 130°59'5 9.7
2018-May-14 19:30N 33°57' E 131°04'611.7
2018-May-14 19:00N 33°54' E 131°10'611.6
2018-May-14 18:30N 33°52' E 131°17'611.8
2018-May-14 18:00N 33°51' E 131°24'611.6
2018-May-14 17:30N 33°50' E 131°31'611.3
2018-May-14 17:00N 33°49' E 131°37'610.9
2018-May-14 16:30N 33°48' E 131°44'510.5
2018-May-14 16:00N 33°47' E 131°50'510.9
2018-May-14 15:30N 33°45' E 131°56'611.5
2018-May-14 14:59N 33°46' E 132°04'712.2
2018-May-14 14:27N 33°49' E 132°10'611.7
2018-May-14 13:57N 33°50' E 132°17'611.8
2018-May-14 13:28N 33°51' E 132°24'611.6
2018-May-14 12:58N 33°53' E 132°31'610.8
2018-May-14 12:27N 33°55' E 132°37'4 9.8
2018-May-14 12:00N 33°57' E 132°41'10 0.6
2018-May-13 19:36N 34°05' E 132°48'412.1
2018-May-13 19:16N 34°02' E 132°45'311.6
2018-May-13 19:00N 33°59' E 132°44'510.9
2018-May-13 18:30N 33°55' E 132°40'711.3
2018-May-13 17:54N 33°52' E 132°32'611.3
2018-May-13 17:20N 33°50' E 132°25'411.1
2018-May-13 17:01N 33°50' E 132°21'611.4
2018-May-13 16:28N 33°49' E 132°13'510.7
2018-May-13 16:00N 33°47' E 132°08'611.3
2018-May-13 15:29N 33°45' E 132°01'612.0
2018-May-13 14:59N 33°45' E 131°54'613.0
2018-May-13 14:30N 33°46' E 131°47'613.0
2018-May-13 14:00N 33°48' E 131°39'713.1
2018-May-13 13:30N 33°49' E 131°31'612.7
2018-May-13 13:00N 33°51' E 131°24'612.6
2018-May-13 12:30N 33°52' E 131°17'611.3
2018-May-13 12:01N 33°54' E 131°10'0 0.4
2018-May-13 11:31N 33°54' E 131°10'0 0.1
2018-May-13 11:00N 33°54' E 131°10'0 0.0
2018-May-13 10:31N 33°54' E 131°10'0 0.0
2018-May-13 10:00N 33°54' E 131°10'0 0.0
2018-May-13 09:30N 33°54' E 131°10'0 0.0
2018-May-13 09:01N 33°54' E 131°10'0 0.0
2018-May-13 08:29N 33°54' E 131°10'0 0.1
2018-May-13 08:00N 33°54' E 131°10'0 0.0
2018-May-13 07:31N 33°54' E 131°10'0 0.0
2018-May-13 07:00N 33°54' E 131°10'0 0.0
2018-May-13 06:30N 33°54' E 131°10'0 0.0
2018-May-13 06:00N 33°54' E 131°10'2 4.3
2018-May-13 05:31N 33°55' E 131°08'611.7
2018-May-13 05:01N 33°58' E 131°02'612.5
2018-May-13 04:30N 33°54' E 130°55'5 9.6
2018-May-13 04:00N 33°59' E 130°53'612.0
2018-May-13 03:30N 34°04' E 130°51'611.2
2018-May-13 03:00N 34°10' E 130°50'611.2
2018-May-13 02:30N 34°16' E 130°49'610.6
2018-May-13 01:58N 34°21' E 130°49'4 9.1
2018-May-13 01:29N 34°25' E 130°52'  
2018-May-09 09:28N 34°24' E 130°52'5 9.6
2018-May-09 08:59N 34°21' E 130°49'510.5
2018-May-09 08:30N 34°16' E 130°49'510.5
2018-May-09 08:00N 34°11' E 130°50'510.3
2018-May-09 07:31N 34°05' E 130°51'510.7
2018-May-09 07:00N 34°00' E 130°53'5 9.7
2018-May-09 06:30N 33°56' E 130°53'4 7.5
2018-May-09 06:00N 33°58' E 130°57'5 9.7
2018-May-09 05:30N 33°58' E 131°03'611.3
2018-May-09 05:00N 33°55' E 131°09'611.4
2018-May-09 04:30N 33°52' E 131°15'611.8
2018-May-09 04:00N 33°51' E 131°22'611.6
2018-May-09 03:30N 33°50' E 131°29'611.5
2018-May-09 03:00N 33°49' E 131°36'611.4
2018-May-09 02:30N 33°48' E 131°43'711.5
2018-May-09 01:54N 33°47' E 131°51'511.4
2018-May-09 01:27N 33°46' E 131°57'511.9
2018-May-09 01:00N 33°46' E 132°03'1012.4
2018-May-09 00:12N 33°50' E 132°14'212.0
2018-May-09 00:00N 33°50' E 132°17'1212.2
2018-May-08 23:00N 33°53' E 132°31'612.3
2018-May-08 22:28N 33°56' E 132°39'612.2
2018-May-08 22:00N 33°59' E 132°44'8510.8
2018-May-08 14:10N 34°25' E 134°21'211.8
2018-May-08 14:00N 34°26' E 134°23'611.7
2018-May-08 13:31N 34°28' E 134°30'611.6
2018-May-08 13:00N 34°30' E 134°36'611.6
2018-May-08 12:30N 34°32' E 134°43'611.5
2018-May-08 12:00N 34°34' E 134°49'510.5
2018-May-08 11:30N 34°36' E 134°55'510.0
2018-May-08 11:00N 34°37' E 135°01'510.5
2018-May-08 10:30N 34°35' E 135°07'612.0
2018-May-08 10:01N 34°34' E 135°14'612.0
2018-May-08 09:30N 34°34' E 135°22'3 6.6
2018-May-08 09:00N 34°33' E 135°26'0 0.0
2018-May-08 08:30N 34°33' E 135°26'0 0.0
2018-May-08 08:00N 34°33' E 135°26'0 0.0
2018-May-08 07:30N 34°33' E 135°26'0 0.0
2018-May-08 07:00N 34°33' E 135°26'0 0.0
2018-May-08 06:30N 34°33' E 135°26'0 0.0
2018-May-08 06:00N 34°33' E 135°26'0 0.0
2018-May-08 05:30N 34°33' E 135°26'0 0.0
2018-May-08 05:00N 34°33' E 135°26'0 0.0
2018-May-08 04:30N 34°33' E 135°26'0 0.0
2018-May-08 04:00N 34°33' E 135°26'0 0.0
2018-May-08 03:30N 34°33' E 135°26'0 0.0
2018-May-08 03:00N 34°33' E 135°26'0 0.0
2018-May-08 02:30N 34°33' E 135°26'0 0.0
2018-May-08 02:00N 34°33' E 135°26'0 0.0
2018-May-08 01:30N 34°33' E 135°26'0 0.0
2018-May-08 01:00N 34°33' E 135°26'0 0.0
2018-May-08 00:30N 34°33' E 135°26'0 0.0
2018-May-08 00:00N 34°33' E 135°26'0 0.0
2018-May-07 23:30N 34°33' E 135°26'0 0.6
2018-May-07 23:00N 34°33' E 135°25'2 3.9
2018-May-07 22:28N 34°34' E 135°23'0 0.0
2018-May-07 21:58N 34°34' E 135°23'0 0.0
2018-May-07 21:28N 34°34' E 135°23'0 0.0
2018-May-07 20:58N 34°34' E 135°23'0 0.0
2018-May-07 20:25N 34°34' E 135°23'0 0.0
2018-May-07 19:58N 34°34' E 135°23'0 0.0
2018-May-07 19:28N 34°34' E 135°23'0 0.0
2018-May-07 18:58N 34°34' E 135°23'0 0.0
2018-May-07 18:28N 34°34' E 135°23'0 0.0
2018-May-07 17:58N 34°34' E 135°23'0 0.0
2018-May-07 17:28N 34°34' E 135°23'0 0.0
2018-May-07 16:58N 34°34' E 135°23'0 0.0
2018-May-07 16:28N 34°34' E 135°23'0 0.0
2018-May-07 15:58N 34°34' E 135°23'0 0.0
2018-May-07 15:28N 34°34' E 135°23'0 0.0
2018-May-07 14:58N 34°34' E 135°23'0 0.1
2018-May-07 14:28N 34°34' E 135°23'0 0.1
2018-May-07 13:58N 34°34' E 135°23'0 0.0
2018-May-07 13:28N 34°34' E 135°23'0 0.1
2018-May-07 12:58N 34°34' E 135°23'0 0.1
2018-May-07 12:28N 34°34' E 135°23'0 0.1
2018-May-07 11:58N 34°34' E 135°23'0 0.1
2018-May-07 11:28N 34°34' E 135°23'0 0.0
2018-May-07 10:58N 34°34' E 135°23'0 0.0
2018-May-07 10:28N 34°34' E 135°23'0 0.0
2018-May-07 09:58N 34°34' E 135°23'0 0.0
2018-May-07 09:28N 34°34' E 135°23'0 0.0
2018-May-07 08:58N 34°34' E 135°23'0 0.1
2018-May-07 08:28N 34°34' E 135°23'0 0.0
2018-May-07 07:58N 34°34' E 135°23'0 0.0
2018-May-07 07:25N 34°34' E 135°23'0 0.0
2018-May-07 06:58N 34°34' E 135°23'0 0.0
2018-May-07 06:28N 34°34' E 135°23'0 0.0
2018-May-07 05:58N 34°34' E 135°23'0 0.2
2018-May-07 05:28N 34°34' E 135°23'0 0.1
2018-May-07 04:58N 34°34' E 135°23'0 0.0
2018-May-07 04:28N 34°34' E 135°23'0 0.0
2018-May-07 03:58N 34°34' E 135°23'0 0.0
2018-May-07 03:28N 34°34' E 135°23'0 0.0
2018-May-07 02:58N 34°34' E 135°23'0 0.0
2018-May-07 02:28N 34°34' E 135°23'0 0.0
2018-May-07 01:58N 34°34' E 135°23'0 0.0
2018-May-07 01:25N 34°34' E 135°23'0 0.0
2018-May-07 00:58N 34°34' E 135°23'0 0.0
2018-May-07 00:28N 34°34' E 135°23'0 0.0
2018-May-06 23:58N 34°34' E 135°23'0 0.0
2018-May-06 23:28N 34°34' E 135°23'0 0.0
2018-May-06 22:58N 34°34' E 135°23'0 0.0
2018-May-06 22:25N 34°34' E 135°23'0 0.0
2018-May-06 21:58N 34°34' E 135°23'0 0.0
2018-May-06 21:28N 34°34' E 135°23'2 3.7
2018-May-06 21:00N 34°34' E 135°21'611.3
2018-May-06 20:30N 34°34' E 135°14'510.7
2018-May-06 20:00N 34°34' E 135°08'611.5
2018-May-06 19:30N 34°37' E 135°01'611.5
2018-May-06 19:01N 34°35' E 134°55'510.8
2018-May-06 18:30N 34°33' E 134°49'510.9
2018-May-06 18:00N 34°31' E 134°42'611.8
2018-May-06 17:30N 34°29' E 134°36'611.7
2018-May-06 17:01N 34°27' E 134°29'611.5
2018-May-06 16:30N 34°24' E 134°23'611.3
2018-May-06 15:57N 34°24' E 134°15'611.1
2018-May-06 15:27N 34°26' E 134°09'72 9.8
2018-May-06 08:07N 34°02' E 132°47'110.6
2018-May-06 08:00N 34°01' E 132°46'510.8
2018-May-06 07:31N 33°57' E 132°42'611.1
2018-May-06 07:00N 33°54' E 132°36'711.5
2018-May-06 06:21N 33°51' E 132°28'411.7
2018-May-06 05:58N 33°50' E 132°22'711.9
2018-May-06 05:24N 33°50' E 132°14'511.6
2018-May-06 05:01N 33°48' E 132°09'611.9
2018-May-06 04:28N 33°45' E 132°02'612.2
2018-May-06 03:59N 33°45' E 131°55'612.0
2018-May-06 03:30N 33°46' E 131°48'611.7
2018-May-06 03:01N 33°48' E 131°42'611.9
2018-May-06 02:31N 33°49' E 131°35'611.6
2018-May-06 02:01N 33°50' E 131°28'611.5
2018-May-06 01:30N 33°51' E 131°21'611.4
2018-May-06 01:00N 33°52' E 131°14'611.4
2018-May-06 00:30N 33°55' E 131°08'611.7
2018-May-06 00:01N 33°58' E 131°02'510.7
2018-May-05 23:30N 33°56' E 130°56'4 8.0
2018-May-05 23:00N 33°57' E 130°52'611.3
2018-May-05 22:30N 34°03' E 130°51'611.5
2018-May-05 22:00N 34°09' E 130°50'611.4
2018-May-05 21:30N 34°15' E 130°49'611.2
2018-May-05 20:59N 34°20' E 130°48'510.1
2018-May-05 20:30N 34°24' E 130°52'711.5
2018-May-05 19:53N 34°29' E 130°58'  
Track history (hours):
 
Tides and Currents Weather Stations Pressure Air Temp Water Temp Dewpoint Dewpoint Depression Visibility Wind Speed Wind Dir Waves Ship Positions

Shoei Maru

Last reported at 2018-May-14 23:20 UTC. Time now 2018-Jun-22 03:03 UTC.
Position N 34°24' E 130°52'.
Warning: this ship's position is 38 days out of date.

Length 70 m; draft 5 m.

Type: Tanker. MMSI: 431600827.

Date/timePositionNaut miles runAvg speedWind from/ knotsBaromVisibWave heightAir tempDewpointWater temp
2018-May-14 23:20N 34°24' E 130°52'411.7
2018-May-14 22:58N 34°20' E 130°48'612.0
2018-May-14 22:30N 34°15' E 130°49'611.8
2018-May-14 22:00N 34°09' E 130°50'611.8
2018-May-14 21:30N 34°03' E 130°51'611.0
2018-May-14 21:00N 33°58' E 130°53'4 7.9
2018-May-14 20:30N 33°55' E 130°56'4 8.9
2018-May-14 20:00N 33°58' E 130°59'5 9.7
2018-May-14 19:30N 33°57' E 131°04'611.7
2018-May-14 19:00N 33°54' E 131°10'611.6
2018-May-14 18:30N 33°52' E 131°17'611.8
2018-May-14 18:00N 33°51' E 131°24'611.6
2018-May-14 17:30N 33°50' E 131°31'611.3
2018-May-14 17:00N 33°49' E 131°37'610.9
2018-May-14 16:30N 33°48' E 131°44'510.5
2018-May-14 16:00N 33°47' E 131°50'510.9
2018-May-14 15:30N 33°45' E 131°56'611.5
2018-May-14 14:59N 33°46' E 132°04'712.2
2018-May-14 14:27N 33°49' E 132°10'611.7
2018-May-14 13:57N 33°50' E 132°17'611.8
2018-May-14 13:28N 33°51' E 132°24'611.6
2018-May-14 12:58N 33°53' E 132°31'610.8
2018-May-14 12:27N 33°55' E 132°37'4 9.8
2018-May-14 12:00N 33°57' E 132°41'10 0.6
2018-May-13 19:36N 34°05' E 132°48'412.1
2018-May-13 19:16N 34°02' E 132°45'311.6
2018-May-13 19:00N 33°59' E 132°44'510.9
2018-May-13 18:30N 33°55' E 132°40'711.3
2018-May-13 17:54N 33°52' E 132°32'611.3
2018-May-13 17:20N 33°50' E 132°25'411.1
2018-May-13 17:01N 33°50' E 132°21'611.4
2018-May-13 16:28N 33°49' E 132°13'510.7
2018-May-13 16:00N 33°47' E 132°08'611.3
2018-May-13 15:29N 33°45' E 132°01'612.0
2018-May-13 14:59N 33°45' E 131°54'613.0
2018-May-13 14:30N 33°46' E 131°47'613.0
2018-May-13 14:00N 33°48' E 131°39'713.1
2018-May-13 13:30N 33°49' E 131°31'612.7
2018-May-13 13:00N 33°51' E 131°24'612.6
2018-May-13 12:30N 33°52' E 131°17'611.3
2018-May-13 12:01N 33°54' E 131°10'0 0.4
2018-May-13 11:31N 33°54' E 131°10'0 0.1
2018-May-13 11:00N 33°54' E 131°10'0 0.0
2018-May-13 10:31N 33°54' E 131°10'0 0.0
2018-May-13 10:00N 33°54' E 131°10'0 0.0
2018-May-13 09:30N 33°54' E 131°10'0 0.0
2018-May-13 09:01N 33°54' E 131°10'0 0.0
2018-May-13 08:29N 33°54' E 131°10'0 0.1
2018-May-13 08:00N 33°54' E 131°10'0 0.0
2018-May-13 07:31N 33°54' E 131°10'0 0.0
2018-May-13 07:00N 33°54' E 131°10'0 0.0
2018-May-13 06:30N 33°54' E 131°10'0 0.0
2018-May-13 06:00N 33°54' E 131°10'2 4.3
2018-May-13 05:31N 33°55' E 131°08'611.7
2018-May-13 05:01N 33°58' E 131°02'612.5
2018-May-13 04:30N 33°54' E 130°55'5 9.6
2018-May-13 04:00N 33°59' E 130°53'612.0
2018-May-13 03:30N 34°04' E 130°51'611.2
2018-May-13 03:00N 34°10' E 130°50'611.2
2018-May-13 02:30N 34°16' E 130°49'610.6
2018-May-13 01:58N 34°21' E 130°49'4 9.1
2018-May-13 01:29N 34°25' E 130°52'  
2018-May-09 09:28N 34°24' E 130°52'5 9.6
2018-May-09 08:59N 34°21' E 130°49'510.5
2018-May-09 08:30N 34°16' E 130°49'510.5
2018-May-09 08:00N 34°11' E 130°50'510.3
2018-May-09 07:31N 34°05' E 130°51'510.7
2018-May-09 07:00N 34°00' E 130°53'5 9.7
2018-May-09 06:30N 33°56' E 130°53'4 7.5
2018-May-09 06:00N 33°58' E 130°57'5 9.7
2018-May-09 05:30N 33°58' E 131°03'611.3
2018-May-09 05:00N 33°55' E 131°09'611.4
2018-May-09 04:30N 33°52' E 131°15'611.8
2018-May-09 04:00N 33°51' E 131°22'611.6
2018-May-09 03:30N 33°50' E 131°29'611.5
2018-May-09 03:00N 33°49' E 131°36'611.4
2018-May-09 02:30N 33°48' E 131°43'711.5
2018-May-09 01:54N 33°47' E 131°51'511.4
2018-May-09 01:27N 33°46' E 131°57'511.9
2018-May-09 01:00N 33°46' E 132°03'1012.4
2018-May-09 00:12N 33°50' E 132°14'212.0
2018-May-09 00:00N 33°50' E 132°17'1212.2
2018-May-08 23:00N 33°53' E 132°31'612.3
2018-May-08 22:28N 33°56' E 132°39'612.2
2018-May-08 22:00N 33°59' E 132°44'8510.8
2018-May-08 14:10N 34°25' E 134°21'211.8
2018-May-08 14:00N 34°26' E 134°23'611.7
2018-May-08 13:31N 34°28' E 134°30'611.6
2018-May-08 13:00N 34°30' E 134°36'611.6
2018-May-08 12:30N 34°32' E 134°43'611.5
2018-May-08 12:00N 34°34' E 134°49'510.5
2018-May-08 11:30N 34°36' E 134°55'510.0
2018-May-08 11:00N 34°37' E 135°01'510.5
2018-May-08 10:30N 34°35' E 135°07'612.0
2018-May-08 10:01N 34°34' E 135°14'612.0
2018-May-08 09:30N 34°34' E 135°22'3 6.6
2018-May-08 09:00N 34°33' E 135°26'0 0.0
2018-May-08 08:30N 34°33' E 135°26'0 0.0
2018-May-08 08:00N 34°33' E 135°26'0 0.0
2018-May-08 07:30N 34°33' E 135°26'0 0.0
2018-May-08 07:00N 34°33' E 135°26'0 0.0
2018-May-08 06:30N 34°33' E 135°26'0 0.0
2018-May-08 06:00N 34°33' E 135°26'0 0.0
2018-May-08 05:30N 34°33' E 135°26'0 0.0
2018-May-08 05:00N 34°33' E 135°26'0 0.0
2018-May-08 04:30N 34°33' E 135°26'0 0.0
2018-May-08 04:00N 34°33' E 135°26'0 0.0
2018-May-08 03:30N 34°33' E 135°26'0 0.0
2018-May-08 03:00N 34°33' E 135°26'0 0.0
2018-May-08 02:30N 34°33' E 135°26'0 0.0
2018-May-08 02:00N 34°33' E 135°26'0 0.0
2018-May-08 01:30N 34°33' E 135°26'0 0.0
2018-May-08 01:00N 34°33' E 135°26'0 0.0
2018-May-08 00:30N 34°33' E 135°26'0 0.0
2018-May-08 00:00N 34°33' E 135°26'0 0.0
2018-May-07 23:30N 34°33' E 135°26'0 0.6
2018-May-07 23:00N 34°33' E 135°25'2 3.9
2018-May-07 22:28N 34°34' E 135°23'0 0.0
2018-May-07 21:58N 34°34' E 135°23'0 0.0
2018-May-07 21:28N 34°34' E 135°23'0 0.0
2018-May-07 20:58N 34°34' E 135°23'0 0.0
2018-May-07 20:25N 34°34' E 135°23'0 0.0
2018-May-07 19:58N 34°34' E 135°23'0 0.0
2018-May-07 19:28N 34°34' E 135°23'0 0.0
2018-May-07 18:58N 34°34' E 135°23'0 0.0
2018-May-07 18:28N 34°34' E 135°23'0 0.0
2018-May-07 17:58N 34°34' E 135°23'0 0.0
2018-May-07 17:28N 34°34' E 135°23'0 0.0
2018-May-07 16:58N 34°34' E 135°23'0 0.0
2018-May-07 16:28N 34°34' E 135°23'0 0.0
2018-May-07 15:58N 34°34' E 135°23'0 0.0
2018-May-07 15:28N 34°34' E 135°23'0 0.0
2018-May-07 14:58N 34°34' E 135°23'0 0.1
2018-May-07 14:28N 34°34' E 135°23'0 0.1
2018-May-07 13:58N 34°34' E 135°23'0 0.0
2018-May-07 13:28N 34°34' E 135°23'0 0.1
2018-May-07 12:58N 34°34' E 135°23'0 0.1
2018-May-07 12:28N 34°34' E 135°23'0 0.1
2018-May-07 11:58N 34°34' E 135°23'0 0.1
2018-May-07 11:28N 34°34' E 135°23'0 0.0
2018-May-07 10:58N 34°34' E 135°23'0 0.0
2018-May-07 10:28N 34°34' E 135°23'0 0.0
2018-May-07 09:58N 34°34' E 135°23'0 0.0
2018-May-07 09:28N 34°34' E 135°23'0 0.0
2018-May-07 08:58N 34°34' E 135°23'0 0.1
2018-May-07 08:28N 34°34' E 135°23'0 0.0
2018-May-07 07:58N 34°34' E 135°23'0 0.0
2018-May-07 07:25N 34°34' E 135°23'0 0.0
2018-May-07 06:58N 34°34' E 135°23'0 0.0
2018-May-07 06:28N 34°34' E 135°23'0 0.0
2018-May-07 05:58N 34°34' E 135°23'0 0.2
2018-May-07 05:28N 34°34' E 135°23'0 0.1
2018-May-07 04:58N 34°34' E 135°23'0 0.0
2018-May-07 04:28N 34°34' E 135°23'0 0.0
2018-May-07 03:58N 34°34' E 135°23'0 0.0
2018-May-07 03:28N 34°34' E 135°23'0 0.0
2018-May-07 02:58N 34°34' E 135°23'0 0.0
2018-May-07 02:28N 34°34' E 135°23'0 0.0
2018-May-07 01:58N 34°34' E 135°23'0 0.0
2018-May-07 01:25N 34°34' E 135°23'0 0.0
2018-May-07 00:58N 34°34' E 135°23'0 0.0
2018-May-07 00:28N 34°34' E 135°23'0 0.0
2018-May-06 23:58N 34°34' E 135°23'0 0.0
2018-May-06 23:28N 34°34' E 135°23'0 0.0
2018-May-06 22:58N 34°34' E 135°23'0 0.0
2018-May-06 22:25N 34°34' E 135°23'0 0.0
2018-May-06 21:58N 34°34' E 135°23'0 0.0
2018-May-06 21:28N 34°34' E 135°23'2 3.7
2018-May-06 21:00N 34°34' E 135°21'611.3
2018-May-06 20:30N 34°34' E 135°14'510.7
2018-May-06 20:00N 34°34' E 135°08'611.5
2018-May-06 19:30N 34°37' E 135°01'611.5
2018-May-06 19:01N 34°35' E 134°55'510.8
2018-May-06 18:30N 34°33' E 134°49'510.9
2018-May-06 18:00N 34°31' E 134°42'611.8
2018-May-06 17:30N 34°29' E 134°36'611.7
2018-May-06 17:01N 34°27' E 134°29'611.5
2018-May-06 16:30N 34°24' E 134°23'611.3
2018-May-06 15:57N 34°24' E 134°15'611.1
2018-May-06 15:27N 34°26' E 134°09'72 9.8
2018-May-06 08:07N 34°02' E 132°47'110.6
2018-May-06 08:00N 34°01' E 132°46'510.8
2018-May-06 07:31N 33°57' E 132°42'611.1
2018-May-06 07:00N 33°54' E 132°36'711.5
2018-May-06 06:21N 33°51' E 132°28'411.7
2018-May-06 05:58N 33°50' E 132°22'711.9
2018-May-06 05:24N 33°50' E 132°14'511.6
2018-May-06 05:01N 33°48' E 132°09'611.9
2018-May-06 04:28N 33°45' E 132°02'612.2
2018-May-06 03:59N 33°45' E 131°55'612.0
2018-May-06 03:30N 33°46' E 131°48'611.7
2018-May-06 03:01N 33°48' E 131°42'611.9
2018-May-06 02:31N 33°49' E 131°35'611.6
2018-May-06 02:01N 33°50' E 131°28'611.5
2018-May-06 01:30N 33°51' E 131°21'611.4
2018-May-06 01:00N 33°52' E 131°14'611.4
2018-May-06 00:30N 33°55' E 131°08'611.7
2018-May-06 00:01N 33°58' E 131°02'510.7
2018-May-05 23:30N 33°56' E 130°56'4 8.0
2018-May-05 23:00N 33°57' E 130°52'611.3
2018-May-05 22:30N 34°03' E 130°51'611.5
2018-May-05 22:00N 34°09' E 130°50'611.4
2018-May-05 21:30N 34°15' E 130°49'611.2
2018-May-05 20:59N 34°20' E 130°48'510.1
2018-May-05 20:30N 34°24' E 130°52'711.5
2018-May-05 19:53N 34°29' E 130°58'  

Dump ship's entire track history